Time;durP1;ratioP1;P1;durP2;ratioP2;P2;SDS_P1;SDS_P2;PMS_P1;PMS_P2;Temp;Humidity;BMP_temperature;BMP_pressure;BME280_temperature;BME280_humidity;BME280_pressure;Samples;Min_cycle;Max_cycle;Signal;HPM_P1;HPM_P2
2023/03/13 09:45:45;;;;;;;5.63;5.00;;;12.50;99.90;;;;;;5082787;27;20562;-75
2023/03/13 09:48:22;;;;;;;5.55;4.22;;;12.60;99.90;;;;;;5081395;28;20217;-75
2023/03/13 09:51:01;;;;;;;4.68;4.25;;;12.80;99.90;;;;;;5074983;28;20637;-74
2023/03/13 09:53:39;;;;;;;4.32;3.70;;;13.00;99.90;;;;;;5075736;28;20309;-75
2023/03/13 09:56:13;;;;;;;7.68;4.35;;;13.20;99.90;;;;;;5084921;28;20204;-75
2023/03/13 09:58:44;;;;;;;5.43;4.00;;;13.50;99.90;;;;;;5085849;28;20244;-76
2023/03/13 10:01:17;;;;;;;6.32;3.97;;;13.80;99.90;;;;;;5094390;28;20202;-73
2023/03/13 10:03:52;;;;;;;5.03;2.75;;;13.90;99.90;;;;;;5087931;28;20275;-75
2023/03/13 10:06:20;;;;;;;6.32;4.20;;;13.90;99.90;;;;;;5081528;28;20202;-76
2023/03/13 10:08:47;;;;;;;5.22;3.22;;;14.10;99.90;;;;;;5089322;28;20612;-75
2023/03/13 10:11:27;;;;;;;4.90;2.90;;;14.60;99.90;;;;;;5085238;28;20286;-75
2023/03/13 10:14:00;;;;;;;4.45;3.00;;;15.10;99.90;;;;;;5076419;28;20292;-75
2023/03/13 10:16:34;;;;;;;3.45;2.50;;;15.30;99.90;;;;;;5082862;28;20306;-76
2023/03/13 10:19:11;;;;;;;4.00;2.87;;;15.60;99.90;;;;;;5080340;28;20296;-76
2023/03/13 10:21:40;;;;;;;4.43;2.33;;;16.20;99.90;;;;;;5080623;28;20915;-75
2023/03/13 10:24:17;;;;;;;5.77;3.20;;;15.90;99.90;;;;;;5081756;28;20481;-75
2023/03/13 10:26:44;;;;;;;5.37;3.10;;;15.60;99.90;;;;;;5085015;28;20495;-73
2023/03/13 10:29:21;;;;;;;6.30;2.90;;;15.20;99.90;;;;;;5077781;28;20531;-73
2023/03/13 10:31:58;;;;;;;4.40;2.70;;;15.30;99.90;;;;;;5078835;28;20842;-74
2023/03/13 10:34:26;;;;;;;2.78;2.40;;;15.20;99.90;;;;;;5081684;28;20503;-73
2023/03/13 10:36:58;;;;;;;3.90;2.10;;;15.00;99.90;;;;;;5079376;28;20256;-73
2023/03/13 10:39:27;;;;;;;3.65;2.72;;;15.00;99.90;;;;;;5085916;28;20205;-74
2023/03/13 10:41:59;;;;;;;10.15;3.38;;;14.80;99.90;;;;;;5082760;28;20265;-75
2023/03/13 10:44:32;;;;;;;4.90;2.63;;;14.70;99.90;;;;;;5084174;28;20333;-74
2023/03/13 10:47:03;;;;;;;3.25;2.95;;;14.60;99.90;;;;;;5084208;28;20205;-73
2023/03/13 10:49:31;;;;;;;6.00;2.85;;;14.50;99.90;;;;;;5077973;28;20208;-75
2023/03/13 10:52:00;;;;;;;3.60;2.70;;;14.40;99.90;;;;;;5077232;28;20242;-75
2023/03/13 10:54:30;;;;;;;4.13;3.67;;;14.30;99.90;;;;;;5079318;28;20298;-74
2023/03/13 10:57:27;;;;;;;7.80;3.10;;;14.40;99.90;;;;;;5065966;28;20283;-76
2023/03/13 10:59:55;;;;;;;3.47;2.40;;;14.40;99.90;;;;;;5063720;28;20741;-74
2023/03/13 11:02:27;;;;;;;4.38;2.25;;;14.50;99.90;;;;;;5064291;28;20232;-75
2023/03/13 11:04:54;;;;;;;5.10;2.58;;;14.80;99.90;;;;;;5064010;28;20244;-74
2023/03/13 11:07:27;;;;;;;4.05;2.55;;;15.00;99.90;;;;;;5074630;28;20608;-75
2023/03/13 11:10:04;;;;;;;4.13;2.53;;;15.00;99.90;;;;;;5071260;28;20199;-74
2023/03/13 11:12:34;;;;;;;7.28;3.58;;;15.10;99.90;;;;;;5062944;28;20632;-76
2023/03/13 11:15:03;;;;;;;4.00;2.20;;;15.20;99.90;;;;;;5056127;28;20292;-73
2023/03/13 11:17:36;;;;;;;4.40;3.47;;;15.30;99.90;;;;;;5071319;28;20237;-77
2023/03/13 11:20:08;;;;;;;3.72;1.80;;;15.20;99.90;;;;;;5070950;28;20813;-79
2023/03/13 11:22:47;;;;;;;5.13;2.97;;;15.20;99.90;;;;;;5072339;28;20224;-77
2023/03/13 11:25:25;;;;;;;7.38;2.47;;;15.20;99.90;;;;;;5067658;28;20233;-76
2023/03/13 11:28:04;;;;;;;6.10;2.50;;;15.40;99.90;;;;;;5058906;28;20276;-76
2023/03/13 11:30:47;;;;;;;4.90;2.37;;;15.50;99.90;;;;;;5057568;28;20649;-77
2023/03/13 11:33:39;;;;;;;4.10;2.00;;;15.80;99.90;;;;;;5065008;28;20531;-76
2023/03/13 11:36:15;;;;;;;3.60;1.57;;;16.00;99.90;;;;;;5065981;28;20457;-77
2023/03/13 11:38:44;;;;;;;3.65;2.20;;;15.80;99.90;;;;;;5066988;28;20443;-78
2023/03/13 11:41:25;;;;;;;2.80;2.17;;;15.80;99.90;;;;;;5071297;28;20202;-77
2023/03/13 11:44:13;;;;;;;1.97;1.70;;;16.00;99.90;;;;;;5068732;28;20558;-76
2023/03/13 11:46:52;;;;;;;5.90;1.93;;;15.90;99.90;;;;;;5064812;28;20854;-75
2023/03/13 11:49:39;;;;;;;4.20;1.35;;;15.80;99.90;;;;;;5072057;28;20490;-76
2023/03/13 11:52:16;;;;;;;9.40;2.20;;;16.00;99.90;;;;;;5067132;28;20672;-77
2023/03/13 11:55:01;;;;;;;3.20;1.83;;;16.00;99.90;;;;;;5068386;28;20523;-78
2023/03/13 11:57:30;;;;;;;7.43;1.67;;;16.00;99.90;;;;;;5057353;28;20543;-76
2023/03/13 12:00:20;;;;;;;4.40;2.20;;;16.10;99.90;;;;;;5070966;28;20480;-77
2023/03/13 12:02:51;;;;;;;3.97;1.40;;;16.00;99.90;;;;;;5068278;28;20221;-77
2023/03/13 12:05:21;;;;;;;3.67;1.33;;;16.00;99.90;;;;;;5067205;28;20532;-77
2023/03/13 12:07:55;;;;;;;5.63;1.80;;;16.20;99.90;;;;;;5071082;28;20478;-77
2023/03/13 12:10:27;;;;;;;7.63;1.80;;;16.10;99.90;;;;;;5072146;28;20789;-78
2023/03/13 12:13:02;;;;;;;6.73;2.00;;;16.20;99.90;;;;;;5072096;28;20496;-76
2023/03/13 12:15:32;;;;;;;3.30;1.93;;;16.20;99.90;;;;;;5069010;28;20491;-78
2023/03/13 12:18:03;;;;;;;2.97;1.90;;;16.30;99.90;;;;;;5059868;28;20961;-76
2023/03/13 12:20:42;;;;;;;6.37;2.03;;;16.50;99.90;;;;;;5066708;28;20444;-76
2023/03/13 12:23:18;;;;;;;4.73;1.63;;;16.40;99.90;;;;;;5074374;28;20881;-76
2023/03/13 12:25:50;;;;;;;4.13;1.93;;;16.60;99.90;;;;;;5083091;28;20864;-76
2023/03/13 12:28:35;;;;;;;4.97;1.83;;;16.70;99.90;;;;;;5072979;28;20479;-76
2023/03/13 12:31:13;;;;;;;4.17;1.33;;;16.60;99.90;;;;;;5072327;28;20846;-76
2023/03/13 12:33:45;;;;;;;4.40;1.30;;;16.50;99.90;;;;;;5077470;28;20470;-76
2023/03/13 12:36:21;;;;;;;18.57;1.70;;;16.50;99.90;;;;;;5059545;28;20552;-77
2023/03/13 12:38:54;;;;;;;4.73;1.53;;;16.40;99.90;;;;;;5070289;28;20471;-76
2023/03/13 12:41:27;;;;;;;3.30;1.37;;;16.70;99.90;;;;;;5061411;28;20453;-77
2023/03/13 12:44:08;;;;;;;6.13;1.70;;;16.60;99.90;;;;;;5067785;28;20473;-76
2023/03/13 12:46:47;;;;;;;3.43;1.90;;;16.60;99.90;;;;;;5069850;28;20437;-77
2023/03/13 12:49:58;;;;;;;4.37;1.67;;;16.70;99.90;;;;;;5068733;28;20481;-75
2023/03/13 12:53:15;;;;;;;3.20;1.20;;;16.70;99.90;;;;;;5032275;28;20472;-77
2023/03/13 12:56:04;;;;;;;3.60;1.77;;;16.80;99.90;;;;;;5065064;28;20565;-76
2023/03/13 12:58:41;;;;;;;3.43;1.60;;;16.80;99.90;;;;;;5060769;28;20446;-74
2023/03/13 13:01:13;;;;;;;5.07;1.97;;;16.90;99.90;;;;;;5063430;28;20506;-77
2023/03/13 13:03:51;;;;;;;3.10;1.83;;;16.90;99.90;;;;;;5073254;28;20909;-75
2023/03/13 13:06:18;;;;;;;5.53;2.00;;;16.80;99.90;;;;;;5073345;28;20756;-77
2023/03/13 13:09:02;;;;;;;5.13;2.10;;;16.80;99.90;;;;;;5064845;28;20580;-76
2023/03/13 13:11:55;;;;;;;2.83;1.80;;;16.80;99.90;;;;;;5060466;28;20436;-77
2023/03/13 13:15:07;;;;;;;4.37;1.93;;;16.90;99.90;;;;;;5060638;28;20462;-78
2023/03/13 13:18:03;;;;;;;4.87;2.30;;;16.80;99.90;;;;;;5060222;28;20449;-77
2023/03/13 13:20:40;;;;;;;4.87;1.73;;;16.90;99.90;;;;;;5062674;28;20488;-75
2023/03/13 13:23:33;;;;;;;3.30;1.90;;;16.90;99.90;;;;;;5070790;28;20813;-76
2023/03/13 13:26:46;;;;;;;1.80;1.50;;;16.80;99.90;;;;;;5060187;28;20542;-75
2023/03/13 13:29:56;;;;;;;3.93;1.87;;;16.80;99.90;;;;;;5059740;28;20440;-76
2023/03/13 13:32:41;;;;;;;4.47;2.17;;;16.70;99.90;;;;;;5065905;28;20860;-77
2023/03/13 13:35:31;;;;;;;2.20;1.80;;;16.60;99.90;;;;;;5058201;28;20485;-77
2023/03/13 13:38:22;;;;;;;7.03;2.10;;;16.80;99.90;;;;;;5064629;28;21000;-77
2023/03/13 13:40:59;;;;;;;3.50;1.70;;;16.90;99.90;;;;;;5060060;28;20456;-74
2023/03/13 13:43:31;;;;;;;2.60;1.97;;;16.80;99.90;;;;;;5070062;28;20493;-76
2023/03/13 13:46:04;;;;;;;4.03;1.60;;;16.90;99.90;;;;;;5064961;28;20453;-76
2023/03/13 13:48:36;;;;;;;5.13;2.13;;;17.00;99.90;;;;;;5072132;28;20445;-79
2023/03/13 13:51:27;;;;;;;4.57;3.07;;;17.10;99.90;;;;;;5061304;28;20517;-76
2023/03/13 13:53:58;;;;;;;2.37;1.47;;;17.20;99.90;;;;;;5056346;28;20611;-76
2023/03/13 13:56:39;;;;;;;4.10;2.73;;;17.30;99.90;;;;;;5063214;28;20481;-75
2023/03/13 13:59:27;;;;;;;1.80;1.27;;;17.30;99.90;;;;;;5072583;28;20458;-76
2023/03/13 14:02:16;;;;;;;2.17;1.90;;;17.30;99.90;;;;;;5065641;28;20452;-75
2023/03/13 14:04:49;;;;;;;4.13;2.17;;;17.30;99.90;;;;;;5065026;28;20455;-76
2023/03/13 14:07:18;;;;;;;2.27;1.73;;;17.30;99.90;;;;;;5067991;28;20464;-76
2023/03/13 14:09:54;;;;;;;4.23;1.90;;;17.30;99.90;;;;;;5076445;28;20480;-79
2023/03/13 14:12:30;;;;;;;4.37;1.97;;;17.20;99.90;;;;;;5069617;28;20469;-76
2023/03/13 14:15:15;;;;;;;4.93;2.00;;;17.40;99.90;;;;;;5069918;28;20579;-75
2023/03/13 14:17:44;;;;;;;1.87;1.50;;;17.40;99.90;;;;;;5072029;28;20539;-76
2023/03/13 14:20:27;;;;;;;2.20;1.37;;;17.40;99.90;;;;;;5068950;28;20472;-76
2023/03/13 14:22:55;;;;;;;1.73;1.30;;;17.20;99.90;;;;;;5058551;28;20464;-77
2023/03/13 14:25:23;;;;;;;1.53;1.20;;;17.30;99.90;;;;;;5068845;28;20438;-76
2023/03/13 14:27:51;;;;;;;5.93;1.77;;;17.30;99.90;;;;;;5070709;28;20477;-76
2023/03/13 14:30:21;;;;;;;4.97;1.63;;;17.20;99.90;;;;;;5070360;28;20441;-77
2023/03/13 14:32:48;;;;;;;2.57;1.27;;;17.20;99.90;;;;;;5068929;28;20460;-75
2023/03/13 14:35:19;;;;;;;5.13;1.50;;;17.40;99.90;;;;;;5065608;28;20540;-76
2023/03/13 14:37:49;;;;;;;4.23;1.93;;;17.30;99.90;;;;;;5070429;28;20451;-77
2023/03/13 14:40:25;;;;;;;3.40;1.73;;;17.30;99.90;;;;;;5073698;28;20452;-79
2023/03/13 14:42:54;;;;;;;1.67;1.57;;;17.40;99.90;;;;;;5065141;28;20499;-76
2023/03/13 14:45:25;;;;;;;5.73;1.80;;;17.50;99.90;;;;;;5074675;28;20802;-76
2023/03/13 14:47:53;;;;;;;2.70;1.80;;;17.50;99.90;;;;;;5060221;28;20480;-77
2023/03/13 14:50:23;;;;;;;2.70;1.47;;;17.50;99.90;;;;;;5073853;28;20490;-76
2023/03/13 14:52:55;;;;;;;5.67;2.60;;;17.50;99.90;;;;;;5071614;28;20521;-76
2023/03/13 14:55:34;;;;;;;1.83;1.40;;;17.50;99.90;;;;;;5073280;28;20559;-76
2023/03/13 14:58:04;;;;;;;4.80;2.00;;;17.50;99.90;;;;;;5071529;28;20456;-76
2023/03/13 15:00:40;;;;;;;2.10;1.03;;;17.50;99.90;;;;;;5071866;28;20448;-77
2023/03/13 15:03:27;;;;;;;2.40;1.40;;;17.30;99.90;;;;;;5080588;28;20459;-76
2023/03/13 15:06:17;;;;;;;2.53;1.80;;;17.30;99.90;;;;;;5071774;28;20919;-78
2023/03/13 15:08:47;;;;;;;5.20;1.70;;;17.30;99.90;;;;;;5071103;28;20444;-77
2023/03/13 15:11:26;;;;;;;4.53;1.23;;;17.30;99.90;;;;;;5071840;28;20834;-76
2023/03/13 15:13:53;;;;;;;1.67;1.37;;;17.40;99.90;;;;;;5064218;28;20544;-77
2023/03/13 15:16:22;;;;;;;2.00;1.43;;;17.40;99.90;;;;;;5057947;28;20576;-77
2023/03/13 15:18:50;;;;;;;1.50;1.00;;;17.40;99.90;;;;;;5066281;28;20449;-77
2023/03/13 15:21:24;;;;;;;8.10;1.67;;;17.30;99.90;;;;;;5062981;28;20463;-76
2023/03/13 15:23:54;;;;;;;11.30;2.57;;;17.20;99.90;;;;;;5063587;28;20973;-77
2023/03/13 15:26:22;;;;;;;3.30;1.60;;;17.20;99.90;;;;;;5074996;28;20527;-77
2023/03/13 15:28:49;;;;;;;2.83;1.30;;;17.20;99.90;;;;;;5070473;28;20524;-77
2023/03/13 15:31:19;;;;;;;3.67;2.20;;;17.20;99.90;;;;;;5074787;28;20459;-76
2023/03/13 15:33:47;;;;;;;2.87;1.70;;;17.30;99.90;;;;;;5058139;28;20564;-78
2023/03/13 15:36:32;;;;;;;5.27;2.40;;;17.30;99.90;;;;;;5072727;28;20504;-77
2023/03/13 15:39:03;;;;;;;2.80;1.40;;;17.20;99.90;;;;;;5070531;28;20484;-78
2023/03/13 15:41:40;;;;;;;5.13;1.33;;;17.20;99.90;;;;;;5073061;28;20777;-77
2023/03/13 15:44:14;;;;;;;3.93;1.30;;;17.20;99.90;;;;;;5075712;28;20477;-77
2023/03/13 15:46:41;;;;;;;4.73;1.90;;;17.10;99.90;;;;;;5074342;28;20473;-78
2023/03/13 15:49:30;;;;;;;9.60;1.70;;;17.20;99.90;;;;;;5064519;28;20467;-76
2023/03/13 15:51:57;;;;;;;4.70;1.67;;;17.20;99.90;;;;;;5078485;28;20440;-77
2023/03/13 15:54:46;;;;;;;5.80;1.70;;;17.20;99.90;;;;;;5060818;28;20528;-77
2023/03/13 15:57:14;;;;;;;2.93;1.17;;;17.10;99.90;;;;;;5065738;28;21033;-77
2023/03/13 15:59:42;;;;;;;2.63;1.77;;;17.10;99.90;;;;;;5064962;28;20799;-78
2023/03/13 16:02:14;;;;;;;1.90;1.50;;;17.00;99.90;;;;;;5068986;28;20502;-77
2023/03/13 16:04:44;;;;;;;5.13;2.17;;;16.90;99.90;;;;;;5069169;28;20484;-79
2023/03/13 16:07:12;;;;;;;3.40;1.60;;;16.90;99.90;;;;;;5068485;28;20985;-80
2023/03/13 16:09:47;;;;;;;3.53;1.20;;;16.80;99.90;;;;;;5074277;28;20501;-77
2023/03/13 16:12:14;;;;;;;3.30;1.70;;;16.80;99.90;;;;;;5066061;28;20523;-77
2023/03/13 16:14:42;;;;;;;2.20;1.40;;;16.80;99.90;;;;;;5078435;28;20454;-77
2023/03/13 16:17:18;;;;;;;3.17;1.70;;;16.80;99.90;;;;;;5072599;28;20487;-76
2023/03/13 16:19:46;;;;;;;2.10;1.77;;;16.80;99.90;;;;;;5074589;28;20563;-78
2023/03/13 16:22:21;;;;;;;5.90;1.90;;;16.70;99.90;;;;;;5076565;28;20472;-77
2023/03/13 16:24:49;;;;;;;2.30;1.57;;;16.70;99.90;;;;;;5060230;28;20473;-76
2023/03/13 16:27:18;;;;;;;5.20;1.80;;;16.70;99.90;;;;;;5067577;28;20545;-76
2023/03/13 16:29:45;;;;;;;1.80;1.50;;;16.60;99.90;;;;;;5059506;28;20456;-79
2023/03/13 16:32:15;;;;;;;2.53;2.03;;;16.60;99.90;;;;;;5062260;28;20947;-79
2023/03/13 16:34:43;;;;;;;4.27;2.47;;;16.60;99.90;;;;;;5066722;28;20450;-77
2023/03/13 16:37:14;;;;;;;12.23;1.87;;;16.50;99.90;;;;;;5071315;28;20549;-77
2023/03/13 16:39:41;;;;;;;2.83;2.17;;;16.40;99.90;;;;;;5076499;28;20457;-79
2023/03/13 16:42:10;;;;;;;11.40;2.60;;;16.40;99.90;;;;;;5069078;28;20454;-79
2023/03/13 16:44:37;;;;;;;2.20;2.00;;;16.30;99.90;;;;;;5070471;28;20499;-76
2023/03/13 16:47:14;;;;;;;3.07;1.33;;;16.30;99.90;;;;;;5067287;28;20523;-77
2023/03/13 16:49:41;;;;;;;3.73;2.10;;;16.30;99.90;;;;;;5065872;28;20861;-77
2023/03/13 16:52:13;;;;;;;6.07;1.70;;;16.20;99.90;;;;;;5058589;28;20443;-77
2023/03/13 16:54:40;;;;;;;2.92;1.70;;;16.10;99.90;;;;;;5066456;28;20948;-77
2023/03/13 16:57:13;;;;;;;3.00;1.83;;;16.10;99.90;;;;;;5071189;28;20521;-75
2023/03/13 16:59:39;;;;;;;4.70;1.87;;;16.00;99.90;;;;;;5079160;28;20471;-78
2023/03/13 17:02:14;;;;;;;4.35;1.63;;;16.00;99.90;;;;;;5059689;28;20525;-77
2023/03/13 17:04:41;;;;;;;5.57;2.07;;;15.90;99.90;;;;;;5069377;28;20209;-76
2023/03/13 17:07:17;;;;;;;3.23;1.67;;;15.80;99.90;;;;;;5068549;28;20998;-78
2023/03/13 17:09:44;;;;;;;1.80;1.58;;;15.80;99.90;;;;;;5074617;28;20529;-78
2023/03/13 17:12:12;;;;;;;4.55;2.88;;;15.60;99.90;;;;;;5075317;28;20201;-78
2023/03/13 17:14:39;;;;;;;3.53;1.88;;;15.60;99.90;;;;;;5063724;28;20202;-77
2023/03/13 17:17:10;;;;;;;4.45;1.77;;;15.50;99.90;;;;;;5063881;28;20246;-79
2023/03/13 17:19:38;;;;;;;2.50;1.50;;;15.50;99.90;;;;;;5072980;28;20209;-78
2023/03/13 17:22:04;;;;;;;2.88;2.00;;;15.40;99.90;;;;;;5066995;28;20435;-79
2023/03/13 17:24:34;;;;;;;5.50;1.98;;;15.30;99.90;;;;;;5070722;28;20763;-76
2023/03/13 17:27:01;;;;;;;4.95;1.63;;;15.30;99.90;;;;;;5068608;28;20677;-78
2023/03/13 17:29:29;;;;;;;3.72;1.92;;;15.20;99.90;;;;;;5075912;28;20707;-79
2023/03/13 17:31:57;;;;;;;5.53;2.15;;;15.10;99.90;;;;;;5069429;28;20563;-77
2023/03/13 17:34:25;;;;;;;2.65;1.35;;;15.10;99.90;;;;;;5068105;28;20311;-78
2023/03/13 17:36:52;;;;;;;7.38;1.92;;;15.00;99.90;;;;;;5076934;28;20224;-79
2023/03/13 17:39:20;;;;;;;2.15;1.88;;;15.00;99.90;;;;;;5065431;28;20662;-78
2023/03/13 17:41:47;;;;;;;3.28;1.98;;;15.00;99.90;;;;;;5061988;28;20230;-79
2023/03/13 17:44:14;;;;;;;3.65;2.50;;;14.90;99.90;;;;;;5066826;28;20228;-77
2023/03/13 17:46:45;;;;;;;5.53;2.72;;;14.90;99.90;;;;;;5064131;28;20297;-78
2023/03/13 17:49:13;;;;;;;6.93;2.10;;;14.80;99.90;;;;;;5067260;28;20223;-77
2023/03/13 17:51:40;;;;;;;4.70;2.17;;;14.80;99.90;;;;;;5065796;28;20283;-77
2023/03/13 17:54:08;;;;;;;4.93;2.20;;;14.70;99.90;;;;;;5068113;28;20669;-78
2023/03/13 17:56:38;;;;;;;5.38;1.88;;;14.60;99.90;;;;;;5068178;28;20214;-78
2023/03/13 17:59:07;;;;;;;3.50;3.17;;;14.60;99.90;;;;;;5062458;28;20686;-79
2023/03/13 18:01:35;;;;;;;5.30;2.25;;;14.50;99.90;;;;;;5078787;28;20210;-77
2023/03/13 18:04:03;;;;;;;4.75;2.40;;;14.50;99.90;;;;;;5061886;28;20446;-79
2023/03/13 18:06:32;;;;;;;4.38;2.33;;;14.50;99.90;;;;;;5072938;28;20197;-79
2023/03/13 18:09:01;;;;;;;3.22;2.15;;;14.50;99.90;;;;;;5070960;28;20265;-80
2023/03/13 18:11:30;;;;;;;4.07;2.20;;;14.50;99.90;;;;;;5065807;28;20221;-81
2023/03/13 18:13:57;;;;;;;3.38;1.88;;;14.40;99.90;;;;;;5068501;28;20248;-77
2023/03/13 18:16:36;;;;;;;6.45;2.65;;;14.40;99.90;;;;;;5076749;28;20250;-80
2023/03/13 18:19:06;;;;;;;3.78;2.47;;;14.30;99.90;;;;;;5069323;28;20214;-79
2023/03/13 18:21:34;;;;;;;3.97;2.30;;;14.30;99.90;;;;;;5070444;28;20250;-77
2023/03/13 18:24:01;;;;;;;2.88;1.92;;;14.20;99.90;;;;;;5069050;28;20227;-76
2023/03/13 18:26:31;;;;;;;5.43;2.45;;;14.10;99.90;;;;;;5068171;28;20226;-76
2023/03/13 18:29:00;;;;;;;2.85;1.75;;;14.10;99.90;;;;;;5066539;28;20204;-77
2023/03/13 18:31:28;;;;;;;4.28;2.38;;;14.00;99.90;;;;;;5076355;28;20198;-77
2023/03/13 18:33:57;;;;;;;4.20;2.45;;;14.00;99.90;;;;;;5067588;28;20774;-73
2023/03/13 18:36:26;;;;;;;7.93;2.90;;;13.90;99.90;;;;;;5072288;28;20251;-77
2023/03/13 18:38:54;;;;;;;2.75;2.30;;;13.90;99.90;;;;;;5066961;28;20273;-76
2023/03/13 18:41:21;;;;;;;16.33;4.05;;;13.90;99.90;;;;;;5063820;28;20294;-77
2023/03/13 18:43:48;;;;;;;7.47;2.13;;;13.90;99.90;;;;;;5064173;28;20310;-75
2023/03/13 18:46:20;;;;;;;6.35;3.28;;;14.00;99.90;;;;;;5070068;28;20279;-78
2023/03/13 18:48:47;;;;;;;5.82;2.40;;;13.90;99.90;;;;;;5072742;28;20286;-76
2023/03/13 18:51:15;;;;;;;2.72;1.90;;;14.00;99.90;;;;;;5069673;28;20607;-76
2023/03/13 18:53:44;;;;;;;5.93;2.47;;;14.00;99.90;;;;;;5070310;28;20306;-76
2023/03/13 18:56:18;;;;;;;4.28;2.17;;;14.00;99.90;;;;;;5061979;28;20413;-75
2023/03/13 18:58:46;;;;;;;4.95;1.80;;;14.00;99.90;;;;;;5075361;28;20225;-74
2023/03/13 19:01:15;;;;;;;5.10;2.17;;;14.00;99.90;;;;;;5073387;28;20292;-78
2023/03/13 19:03:42;;;;;;;4.43;2.67;;;14.10;99.90;;;;;;5068934;28;20715;-74
2023/03/13 19:06:20;;;;;;;8.18;2.47;;;14.00;99.90;;;;;;5069712;28;20204;-77
2023/03/13 19:08:50;;;;;;;5.75;2.55;;;13.90;99.90;;;;;;5072793;28;20199;-77
2023/03/13 19:11:19;;;;;;;9.43;2.90;;;13.80;99.90;;;;;;5066312;28;20750;-78
2023/03/13 19:13:47;;;;;;;5.18;3.03;;;13.80;99.90;;;;;;5074061;28;20322;-78
2023/03/13 19:16:18;;;;;;;6.00;2.78;;;13.80;99.90;;;;;;5067405;28;20253;-74
2023/03/13 19:18:45;;;;;;;5.60;2.95;;;13.80;99.90;;;;;;5066287;28;20242;-76
2023/03/13 19:21:18;;;;;;;4.18;2.80;;;13.80;99.90;;;;;;5069165;28;20794;-79
2023/03/13 19:23:45;;;;;;;3.70;2.45;;;13.80;99.90;;;;;;5065933;28;20214;-80
2023/03/13 19:26:22;;;;;;;5.80;2.60;;;13.80;99.90;;;;;;5073955;28;20252;-75
2023/03/13 19:28:49;;;;;;;11.20;2.92;;;13.80;99.90;;;;;;5060720;28;20282;-77
2023/03/13 19:31:16;;;;;;;6.93;2.65;;;13.80;99.90;;;;;;5057010;28;20206;-75
2023/03/13 19:33:43;;;;;;;11.73;2.90;;;13.80;99.90;;;;;;5061573;28;20363;-78
2023/03/13 19:36:12;;;;;;;4.22;2.83;;;13.90;99.90;;;;;;5064236;28;20208;-74
2023/03/13 19:38:39;;;;;;;5.90;3.22;;;13.80;99.90;;;;;;5064387;28;20223;-75
2023/03/13 19:41:08;;;;;;;5.57;3.10;;;13.80;99.90;;;;;;5066822;28;20199;-76
2023/03/13 19:43:37;;;;;;;4.93;3.78;;;13.80;99.90;;;;;;5068373;28;20231;-78
2023/03/13 19:46:24;;;;;;;5.90;3.30;;;13.80;99.90;;;;;;5063265;28;20229;-78
2023/03/13 19:48:55;;;;;;;7.25;3.50;;;13.70;99.90;;;;;;5059863;28;20728;-75
2023/03/13 19:51:24;;;;;;;7.15;3.78;;;13.80;99.90;;;;;;5063935;28;20208;-77
2023/03/13 19:53:52;;;;;;;6.97;3.47;;;13.70;99.90;;;;;;5068795;28;20282;-76
2023/03/13 19:56:21;;;;;;;7.80;3.80;;;13.70;99.90;;;;;;5066292;28;20203;-76
2023/03/13 19:58:51;;;;;;;6.28;3.00;;;13.70;99.90;;;;;;5070160;28;20196;-77
2023/03/13 20:01:19;;;;;;;9.88;3.40;;;13.60;99.90;;;;;;5063761;28;20195;-79
2023/03/13 20:03:46;;;;;;;5.20;3.47;;;13.60;99.90;;;;;;5068377;28;20227;-77
2023/03/13 20:06:17;;;;;;;8.82;3.08;;;13.50;99.90;;;;;;5059057;28;20215;-73
2023/03/13 20:08:44;;;;;;;3.85;3.10;;;13.50;99.90;;;;;;5074602;28;20239;-78
2023/03/13 20:11:11;;;;;;;7.55;4.03;;;13.40;99.90;;;;;;5073615;28;20310;-76
2023/03/13 20:13:40;;;;;;;4.75;3.20;;;13.30;99.90;;;;;;5074585;28;20594;-75
2023/03/13 20:16:10;;;;;;;3.75;2.97;;;13.30;99.90;;;;;;5073916;28;20282;-75
2023/03/13 20:18:37;;;;;;;5.45;4.20;;;13.20;99.90;;;;;;5071401;28;20261;-78
2023/03/13 20:21:04;;;;;;;8.38;3.10;;;13.10;99.90;;;;;;5075607;28;20258;-76
2023/03/13 20:23:32;;;;;;;5.05;2.90;;;13.10;99.90;;;;;;5068960;28;20277;-76
2023/03/13 20:26:04;;;;;;;4.90;3.55;;;13.00;99.90;;;;;;5065576;28;20238;-74
2023/03/13 20:28:31;;;;;;;9.02;4.65;;;13.00;99.90;;;;;;5056504;28;20728;-75
2023/03/13 20:30:58;;;;;;;12.15;6.03;;;12.90;99.90;;;;;;5060840;28;20701;-76
2023/03/13 20:33:26;;;;;;;3.80;2.80;;;12.90;99.90;;;;;;5067053;28;20254;-74
2023/03/13 20:35:58;;;;;;;5.07;3.17;;;12.90;99.90;;;;;;5057860;28;20278;-74
2023/03/13 20:38:25;;;;;;;6.00;3.50;;;12.90;99.90;;;;;;5065691;28;20203;-75
2023/03/13 20:40:53;;;;;;;6.35;3.17;;;12.80;99.90;;;;;;5066447;28;20209;-75
2023/03/13 20:43:20;;;;;;;5.97;3.55;;;12.90;99.90;;;;;;5077918;28;20308;-76
2023/03/13 20:45:47;;;;;;;4.22;2.80;;;12.70;99.90;;;;;;5057256;28;20218;-77
2023/03/13 20:48:14;;;;;;;8.55;3.00;;;12.80;99.90;;;;;;5062970;28;20604;-76
2023/03/13 20:50:43;;;;;;;9.35;3.15;;;12.70;99.90;;;;;;5064062;28;20620;-76
2023/03/13 20:53:13;;;;;;;7.97;2.72;;;12.70;99.90;;;;;;5059197;28;20290;-72
2023/03/13 20:55:40;;;;;;;7.70;3.17;;;12.70;99.90;;;;;;5075138;28;20670;-76
2023/03/13 20:58:07;;;;;;;6.03;3.70;;;12.70;99.90;;;;;;5065998;28;20639;-76
2023/03/13 21:00:34;;;;;;;11.38;4.15;;;12.70;99.90;;;;;;5063631;28;20213;-75
2023/03/13 21:03:01;;;;;;;6.03;3.20;;;12.70;99.90;;;;;;5072065;28;21830;-74
2023/03/13 21:05:28;;;;;;;7.72;4.72;;;12.60;99.90;;;;;;5077602;28;20198;-74
2023/03/13 21:07:56;;;;;;;9.07;3.50;;;12.60;99.90;;;;;;5071199;28;20274;-74
2023/03/13 21:10:23;;;;;;;8.55;3.97;;;12.70;99.90;;;;;;5073633;28;20235;-74
2023/03/13 21:12:51;;;;;;;5.10;3.60;;;12.60;99.90;;;;;;5062606;28;20691;-75
2023/03/13 21:15:18;;;;;;;4.20;2.75;;;12.50;99.90;;;;;;5066060;28;20286;-76
2023/03/13 21:17:45;;;;;;;9.32;6.40;;;12.50;99.90;;;;;;5071752;28;20225;-76
2023/03/13 21:20:14;;;;;;;6.13;2.80;;;12.50;99.90;;;;;;5069905;28;20289;-77
2023/03/13 21:22:42;;;;;;;4.18;3.28;;;12.50;99.90;;;;;;5064103;28;20240;-75
2023/03/13 21:25:12;;;;;;;4.28;2.85;;;12.40;99.90;;;;;;5067767;28;20260;-75
2023/03/13 21:27:42;;;;;;;5.40;3.38;;;12.30;99.90;;;;;;5055970;28;20291;-76
2023/03/13 21:30:11;;;;;;;6.60;3.20;;;12.40;99.90;;;;;;5069270;28;20559;-75
2023/03/13 21:32:40;;;;;;;9.57;5.63;;;12.50;99.90;;;;;;5071207;28;20228;-78
2023/03/13 21:35:08;;;;;;;8.07;3.50;;;12.50;99.90;;;;;;5068851;28;20241;-76
2023/03/13 21:37:36;;;;;;;3.28;2.90;;;12.60;99.90;;;;;;5063125;28;20723;-73
2023/03/13 21:40:05;;;;;;;5.63;2.60;;;12.70;99.90;;;;;;5068892;28;20248;-78
2023/03/13 21:42:34;;;;;;;16.08;3.22;;;12.70;99.90;;;;;;5064742;28;20202;-79
2023/03/13 21:45:01;;;;;;;4.72;3.28;;;12.60;99.90;;;;;;5071619;28;20663;-77
2023/03/13 21:47:30;;;;;;;4.80;2.90;;;12.70;99.90;;;;;;5061087;28;20302;-76
2023/03/13 21:49:59;;;;;;;12.90;4.70;;;12.70;99.90;;;;;;5061851;28;20195;-75
2023/03/13 21:52:26;;;;;;;7.63;3.97;;;12.70;99.90;;;;;;5068734;28;20253;-75
2023/03/13 21:54:54;;;;;;;4.13;2.70;;;12.70;99.90;;;;;;5064990;28;20285;-74
2023/03/13 21:57:22;;;;;;;5.43;4.03;;;12.60;99.90;;;;;;5068406;28;20294;-75
2023/03/13 21:59:51;;;;;;;9.50;3.50;;;12.60;99.90;;;;;;5068191;28;20211;-76
2023/03/13 22:02:21;;;;;;;6.90;3.33;;;12.60;99.90;;;;;;5070336;28;20205;-76
2023/03/13 22:04:48;;;;;;;7.55;4.38;;;12.60;99.90;;;;;;5064636;28;20202;-75
2023/03/13 22:07:16;;;;;;;7.20;3.00;;;12.60;99.90;;;;;;5060852;28;20249;-76
2023/03/13 22:09:43;;;;;;;7.28;3.28;;;12.70;99.90;;;;;;5065364;28;20286;-76
2023/03/13 22:12:12;;;;;;;7.78;3.63;;;12.80;99.90;;;;;;5071355;28;20201;-75
2023/03/13 22:14:39;;;;;;;6.30;4.05;;;12.90;99.90;;;;;;5070613;28;20276;-76
2023/03/13 22:17:07;;;;;;;5.40;4.05;;;12.90;99.90;;;;;;5065936;28;20287;-76
2023/03/13 22:19:34;;;;;;;3.50;2.65;;;13.00;99.90;;;;;;5070306;28;20200;-75
2023/03/13 22:22:01;;;;;;;6.20;3.17;;;13.00;99.90;;;;;;5064767;28;20198;-78
2023/03/13 22:24:28;;;;;;;15.05;4.32;;;13.00;99.90;;;;;;5067051;28;20306;-75
2023/03/13 22:26:56;;;;;;;10.60;4.07;;;12.90;99.90;;;;;;5070759;28;20294;-75
2023/03/13 22:29:23;;;;;;;5.15;2.92;;;12.70;99.90;;;;;;5070742;28;20199;-74
2023/03/13 22:31:50;;;;;;;8.07;3.75;;;12.50;99.90;;;;;;5068665;28;20202;-76
2023/03/13 22:34:18;;;;;;;8.55;3.78;;;12.20;99.90;;;;;;5069555;28;20344;-74
2023/03/13 22:36:45;;;;;;;12.15;4.20;;;12.20;99.90;;;;;;5068598;28;20226;-75
2023/03/13 22:39:12;;;;;;;9.80;4.93;;;12.10;99.90;;;;;;5068115;28;20313;-76
2023/03/13 22:41:39;;;;;;;8.15;4.05;;;12.00;99.90;;;;;;5070515;28;20210;-74
2023/03/13 22:44:06;;;;;;;9.02;4.93;;;12.00;99.90;;;;;;5065979;28;20288;-75
2023/03/13 22:46:35;;;;;;;6.13;4.10;;;12.00;99.90;;;;;;5069856;28;20623;-74
2023/03/13 22:49:02;;;;;;;8.00;4.15;;;11.90;99.90;;;;;;5069947;28;20198;-75
2023/03/13 22:51:31;;;;;;;7.20;3.65;;;11.90;99.90;;;;;;5064118;28;20715;-74
2023/03/13 22:53:57;;;;;;;5.75;3.40;;;11.90;99.90;;;;;;5074382;28;20267;-73
2023/03/13 22:56:24;;;;;;;5.45;3.45;;;11.90;99.90;;;;;;5066697;28;20568;-73